createdAt,value
2018-08-16T00:00:02.964Z,99153.65
2018-08-16T00:02:31.438Z,99153.27
2018-08-16T00:04:59.760Z,99159.17
2018-08-16T00:07:28.069Z,99155.42
2018-08-16T00:09:56.871Z,99155.32
2018-08-16T00:12:25.224Z,99151.39
2018-08-16T00:14:53.550Z,99152.54
2018-08-16T00:17:21.880Z,99144.30
2018-08-16T00:19:50.146Z,99144.26
2018-08-16T00:22:18.480Z,99141.44
2018-08-16T00:24:46.774Z,99146.87
2018-08-16T00:27:15.094Z,99142.11
2018-08-16T00:29:43.502Z,99142.59
2018-08-16T00:33:15.314Z,99136.53
2018-08-16T00:35:43.602Z,99141.58
2018-08-16T00:38:11.997Z,99138.75
2018-08-16T00:40:40.335Z,99136.95
2018-08-16T00:43:08.668Z,99136.22
2018-08-16T00:45:37.014Z,99138.44
2018-08-16T00:48:05.419Z,99140.59
2018-08-16T00:50:34.022Z,99138.63
2018-08-16T00:53:02.355Z,99137.75
2018-08-16T00:55:30.691Z,99134.91
2018-08-16T00:57:59.046Z,99141.50
2018-08-16T01:00:27.358Z,99135.58
2018-08-16T01:02:55.653Z,99126.66
2018-08-16T01:05:24.027Z,99130.59
2018-08-16T01:07:52.310Z,99137.99
2018-08-16T01:10:20.562Z,99136.27
2018-08-16T01:12:48.875Z,99133.17
2018-08-16T01:15:17.521Z,99131.73
2018-08-16T01:17:45.861Z,99130.78
2018-08-16T01:20:14.379Z,99133.23
2018-08-16T01:22:42.647Z,99130.70
2018-08-16T01:25:12.051Z,99133.16
2018-08-16T01:27:40.364Z,99129.61
2018-08-16T01:30:09.744Z,99128.62
2018-08-16T01:32:38.014Z,99126.67
2018-08-16T01:35:06.802Z,99118.26
2018-08-16T01:37:35.159Z,99123.25
2018-08-16T01:40:03.607Z,99119.66
2018-08-16T01:42:31.891Z,99121.34
2018-08-16T01:45:00.217Z,99120.87
2018-08-16T01:47:28.702Z,99115.76
2018-08-16T01:49:56.982Z,99127.23
2018-08-16T01:52:25.384Z,99123.12
2018-08-16T01:54:53.669Z,99114.77
2018-08-16T01:57:22.002Z,99124.79
2018-08-16T01:59:50.370Z,99121.59
2018-08-16T02:02:18.745Z,99116.89
2018-08-16T02:04:47.029Z,99113.22
2018-08-16T02:07:15.366Z,99110.88
2018-08-16T02:09:43.754Z,99113.41
2018-08-16T02:12:12.135Z,99111.70
2018-08-16T02:14:40.462Z,99107.25
2018-08-16T02:17:08.821Z,99109.37
2018-08-16T02:19:37.111Z,99112.89
2018-08-16T02:22:05.503Z,99109.38
2018-08-16T02:24:33.776Z,99113.84
2018-08-16T02:27:02.079Z,99112.15
2018-08-16T02:29:30.394Z,99110.88
2018-08-16T02:31:58.710Z,99113.35
2018-08-16T02:34:27.281Z,99111.34
2018-08-16T02:36:55.794Z,99113.04
2018-08-16T02:39:24.159Z,99112.08
2018-08-16T02:41:52.527Z,99112.89
2018-08-16T02:44:20.875Z,99104.30
2018-08-16T02:46:49.146Z,99105.31
2018-08-16T02:49:17.488Z,99100.29
2018-08-16T02:51:45.795Z,99098.27
2018-08-16T02:54:14.136Z,99101.94
2018-08-16T02:56:42.424Z,99103.38
2018-08-16T02:59:10.744Z,99102.27
2018-08-16T03:01:39.039Z,99095.92
2018-08-16T03:04:07.456Z,99100.89
2018-08-16T03:06:35.742Z,99096.48
2018-08-16T03:09:05.631Z,99095.72
2018-08-16T03:11:33.926Z,99096.07
2018-08-16T03:14:02.257Z,99100.20
2018-08-16T03:16:30.611Z,99099.72
2018-08-16T03:18:58.938Z,99090.30
2018-08-16T03:21:27.294Z,99091.98
2018-08-16T03:23:55.888Z,99096.95
2018-08-16T03:26:24.508Z,99093.32
2018-08-16T03:28:59.472Z,99093.44
2018-08-16T03:31:27.836Z,99086.81
2018-08-16T03:33:56.115Z,99084.42
2018-08-16T03:36:24.484Z,99082.88
2018-08-16T03:38:52.759Z,99088.59
2018-08-16T03:41:21.114Z,99084.70
2018-08-16T03:43:49.419Z,99089.14
2018-08-16T03:46:17.898Z,99078.51
2018-08-16T03:48:46.169Z,99081.76
2018-08-16T03:51:14.473Z,99079.66
2018-08-16T03:53:42.773Z,99081.47
2018-08-16T03:56:11.113Z,99080.05
2018-08-16T03:58:39.408Z,99087.10
2018-08-16T04:01:07.995Z,99082.88
2018-08-16T04:03:36.314Z,99083.37
2018-08-16T04:06:04.682Z,99081.61
2018-08-16T04:08:33.134Z,99080.92
2018-08-16T04:11:01.450Z,99085.05
2018-08-16T04:13:29.778Z,99086.30
2018-08-16T04:15:58.105Z,99095.20
2018-08-16T04:18:26.520Z,99086.59
2018-08-16T04:20:54.851Z,99085.16
2018-08-16T04:23:23.347Z,99083.45
2018-08-16T04:25:51.723Z,99084.66
2018-08-16T04:28:20.022Z,99085.90
2018-08-16T04:30:48.290Z,99083.31
2018-08-16T04:33:16.585Z,99076.19
2018-08-16T04:35:44.882Z,99091.33
2018-08-16T04:38:13.239Z,99086.70
2018-08-16T04:40:41.562Z,99083.45
2018-08-16T04:43:09.894Z,99079.56
2018-08-16T04:45:38.236Z,99080.55
2018-08-16T04:48:07.140Z,99076.48
2018-08-16T04:50:35.645Z,99076.98
2018-08-16T04:53:04.114Z,99080.47
2018-08-16T04:55:32.448Z,99071.48
2018-08-16T04:58:00.824Z,99067.36
2018-08-16T05:00:29.223Z,99077.98
2018-08-16T05:02:57.574Z,99074.11
2018-08-16T05:05:26.295Z,99074.61
2018-08-16T05:07:54.613Z,99076.55
2018-08-16T05:10:22.994Z,99075.19
2018-08-16T05:12:51.571Z,99070.77
2018-08-16T05:15:19.968Z,99070.59
2018-08-16T05:17:48.410Z,99069.92
2018-08-16T05:20:16.774Z,99068.37
2018-08-16T05:22:45.253Z,99068.92
2018-08-16T05:25:13.536Z,99071.45
2018-08-16T05:27:41.886Z,99066.72
2018-08-16T05:30:12.207Z,99066.07
2018-08-16T05:32:40.877Z,99070.20
2018-08-16T05:35:09.499Z,99064.53
2018-08-16T05:37:38.652Z,99067.00
2018-08-16T05:40:08.615Z,99070.23
2018-08-16T05:42:37.042Z,99055.78
2018-08-16T05:45:05.632Z,99064.58
2018-08-16T05:47:33.947Z,99059.35
2018-08-16T05:50:02.411Z,99053.92
2018-08-16T05:52:30.726Z,99049.97
2018-08-16T05:54:59.043Z,99054.24
2018-08-16T05:57:27.385Z,99054.17
2018-08-16T05:59:55.807Z,99049.86
2018-08-16T06:02:24.179Z,99052.23
2018-08-16T06:04:52.517Z,99053.34
2018-08-16T06:07:21.176Z,99048.05
2018-08-16T06:09:49.634Z,99036.97
2018-08-16T06:12:17.995Z,99045.59
2018-08-16T06:14:47.246Z,99039.08
2018-08-16T06:17:15.942Z,99037.24
2018-08-16T06:19:44.412Z,99033.23
2018-08-16T06:22:12.782Z,99034.61
2018-08-16T06:24:41.848Z,99036.47
2018-08-16T06:27:10.253Z,99028.11
2018-08-16T06:29:38.576Z,99027.42
2018-08-16T06:32:07.208Z,99030.59
2018-08-16T06:34:35.612Z,99025.87
2018-08-16T06:37:04.147Z,99032.45
2018-08-16T06:39:32.527Z,99031.58
2018-08-16T06:42:00.817Z,99021.30
2018-08-16T06:44:29.141Z,99029.53
2018-08-16T06:46:57.946Z,99024.08
2018-08-16T06:49:26.345Z,99030.25
2018-08-16T06:51:54.878Z,99023.99
2018-08-16T06:54:23.213Z,99026.53
2018-08-16T06:56:51.500Z,99024.31
2018-08-16T06:59:19.851Z,99020.06
2018-08-16T07:01:48.246Z,99018.33
2018-08-16T07:04:16.666Z,99014.33
2018-08-16T07:06:45.113Z,99011.95
2018-08-16T07:09:13.409Z,99004.77
2018-08-16T07:11:41.722Z,99001.11
2018-08-16T07:14:10.015Z,98999.56
2018-08-16T07:16:38.288Z,99000.77
2018-08-16T07:19:06.667Z,99000.02
2018-08-16T07:21:34.951Z,99001.96
2018-08-16T07:24:03.295Z,98998.38
2018-08-16T07:26:31.575Z,98997.63
2018-08-16T07:28:59.955Z,98992.47
2018-08-16T07:31:28.270Z,98993.49
2018-08-16T07:34:02.335Z,98991.05
2018-08-16T07:36:30.643Z,98989.23
2018-08-16T07:38:58.998Z,98989.55
2018-08-16T07:41:27.299Z,98990.07
2018-08-16T07:43:55.825Z,98988.77
2018-08-16T07:46:24.165Z,98987.59
2018-08-16T07:48:52.432Z,98984.81
2018-08-16T07:51:21.011Z,98981.47
2018-08-16T07:53:49.083Z,98977.69
2018-08-16T07:56:17.386Z,98975.03
2018-08-16T07:58:45.689Z,98968.34
2018-08-16T08:01:16.970Z,98985.13
2018-08-16T08:03:45.298Z,98975.36
2018-08-16T08:06:13.683Z,98980.53
2018-08-16T08:08:41.966Z,98973.80
2018-08-16T08:11:10.266Z,98978.58
2018-08-16T08:13:38.595Z,98971.48
2018-08-16T08:16:06.987Z,98976.87
2018-08-16T08:18:35.295Z,98972.27
2018-08-16T08:21:03.609Z,98969.96
2018-08-16T08:23:31.870Z,98963.94
2018-08-16T08:26:00.190Z,98971.66
2018-08-16T08:28:28.507Z,98962.05
2018-08-16T08:30:56.846Z,98963.38
2018-08-16T08:33:25.222Z,98968.90
2018-08-16T08:36:05.123Z,98963.22
2018-08-16T08:38:33.637Z,98959.91
2018-08-16T08:41:02.227Z,98957.16
2018-08-16T08:43:42.059Z,98953.66
2018-08-16T08:46:10.517Z,98949.75
2018-08-16T08:48:38.774Z,98946.03
2018-08-16T08:51:07.096Z,98943.41
2018-08-16T08:54:17.988Z,98943.94
2018-08-16T08:56:57.779Z,98941.08
2018-08-16T08:59:26.330Z,98934.20
2018-08-16T09:01:54.575Z,98931.58
2018-08-16T09:04:22.911Z,98928.75
2018-08-16T09:06:51.260Z,98933.48
2018-08-16T09:09:20.344Z,98930.10
2018-08-16T09:11:59.905Z,98928.86
2018-08-16T09:14:39.538Z,98928.23
2018-08-16T09:17:08.233Z,98919.13
2018-08-16T09:19:36.723Z,98918.19
2018-08-16T09:22:05.117Z,98921.34
2018-08-16T09:24:33.399Z,98919.94
2018-08-16T09:27:01.707Z,98917.97
2018-08-16T09:30:38.845Z,98919.94
2018-08-16T09:33:18.591Z,98914.17
2018-08-16T09:35:47.103Z,98917.86
2018-08-16T09:38:15.397Z,98910.19
2018-08-16T09:40:43.766Z,98908.18
2018-08-16T09:43:12.043Z,98899.92
2018-08-16T09:46:52.107Z,98902.48
2018-08-16T09:49:20.390Z,98885.18
2018-08-16T09:51:49.085Z,98884.22
2018-08-16T09:54:17.295Z,98883.72
2018-08-16T09:56:46.399Z,98886.36
2018-08-16T09:59:14.714Z,98882.89
2018-08-16T10:01:43.027Z,98885.33
2018-08-16T10:04:11.406Z,98883.79
2018-08-16T10:06:40.719Z,98878.11
2018-08-16T10:09:13.067Z,98876.28
2018-08-16T10:11:41.358Z,98869.33
2018-08-16T10:14:09.670Z,98870.07
2018-08-16T10:16:38.252Z,98875.03
2018-08-16T10:19:06.814Z,98869.02
2018-08-16T10:21:35.206Z,98870.47
2018-08-16T10:24:03.959Z,98868.66
2018-08-16T10:26:37.876Z,98850.67
2018-08-16T10:29:06.942Z,98844.75
2018-08-16T10:31:35.249Z,98855.31
2018-08-16T10:34:03.571Z,98848.05
2018-08-16T10:36:32.131Z,98844.33
2018-08-16T10:39:00.443Z,98843.28
2018-08-16T10:41:29.175Z,98844.77
2018-08-16T10:43:57.556Z,98837.66
2018-08-16T10:46:25.925Z,98837.82
2018-08-16T10:48:54.268Z,98835.85
2018-08-16T10:51:22.582Z,98836.67
2018-08-16T10:53:50.932Z,98837.51
2018-08-16T10:56:19.219Z,98836.44
2018-08-16T10:58:47.521Z,98837.88
2018-08-16T11:01:15.819Z,98834.78
2018-08-16T11:03:44.159Z,98835.01
2018-08-16T11:06:12.489Z,98831.05
2018-08-16T11:08:40.899Z,98831.22
2018-08-16T11:11:09.277Z,98829.81
2018-08-16T11:13:37.928Z,98822.86
2018-08-16T11:16:06.225Z,98812.81
2018-08-16T11:18:34.551Z,98811.58
2018-08-16T11:21:02.868Z,98807.02
2018-08-16T11:23:31.153Z,98801.17
2018-08-16T11:25:59.447Z,98803.19
2018-08-16T11:28:27.742Z,98795.38
2018-08-16T11:30:56.038Z,98796.23
2018-08-16T11:33:25.385Z,98800.65
2018-08-16T11:35:53.687Z,98796.17
2018-08-16T11:38:22.023Z,98790.25
2018-08-16T11:40:50.375Z,98787.09
2018-08-16T11:43:18.722Z,98780.85
2018-08-16T11:45:47.032Z,98783.81
2018-08-16T11:48:15.332Z,98783.69
2018-08-16T11:50:43.675Z,98780.80
2018-08-16T11:53:12.030Z,98778.84
2018-08-16T11:55:40.339Z,98776.27
2018-08-16T11:58:08.663Z,98767.97
2018-08-16T12:00:37.027Z,98768.80
2018-08-16T12:03:05.934Z,98766.18
2018-08-16T12:05:34.208Z,98761.95
2018-08-16T12:08:02.537Z,98765.73
2018-08-16T12:10:30.810Z,98759.05
2018-08-16T12:12:59.191Z,98755.72
2018-08-16T12:15:27.496Z,98758.78
2018-08-16T12:17:55.819Z,98756.00
2018-08-16T12:20:24.098Z,98755.48
2018-08-16T12:22:52.540Z,98750.08
2018-08-16T12:25:20.903Z,98739.97
2018-08-16T12:27:49.267Z,98742.50
2018-08-16T12:30:17.596Z,98731.59
2018-08-16T12:32:46.015Z,98731.20
2018-08-16T12:35:14.352Z,98735.67
2018-08-16T12:37:42.860Z,98731.30
2018-08-16T12:40:11.249Z,98730.22
2018-08-16T12:42:39.590Z,98712.11
2018-08-16T12:45:07.998Z,98713.22
2018-08-16T12:47:36.320Z,98709.75
2018-08-16T12:50:05.711Z,98708.45
2018-08-16T12:52:34.328Z,98698.23
2018-08-16T12:55:02.630Z,98701.56
2018-08-16T12:57:31.214Z,98693.27
2018-08-16T12:59:59.566Z,98702.79
2018-08-16T13:02:27.887Z,98693.23
2018-08-16T13:04:56.231Z,98690.39
2018-08-16T13:07:24.554Z,98684.36
2018-08-16T13:09:53.006Z,98676.11
2018-08-16T13:12:21.887Z,98680.63
2018-08-16T13:14:50.267Z,98671.86
2018-08-16T13:17:19.042Z,98669.94
2018-08-16T13:19:47.424Z,98664.20
2018-08-16T13:22:22.637Z,98663.85
2018-08-16T13:24:51.103Z,98666.39
2018-08-16T13:27:19.409Z,98666.56
2018-08-16T13:29:48.020Z,98670.52
2018-08-16T13:32:16.459Z,98669.30
2018-08-16T13:34:44.855Z,98659.84
2018-08-16T13:37:13.443Z,98657.30
2018-08-16T13:39:41.750Z,98658.94
2018-08-16T13:42:10.327Z,98653.93
2018-08-16T13:44:38.754Z,98646.18
2018-08-16T13:47:07.264Z,98644.84
2018-08-16T13:49:35.588Z,98646.09
2018-08-16T13:52:04.413Z,98644.02
2018-08-16T13:54:32.772Z,98645.58
2018-08-16T13:57:01.074Z,98634.69
2018-08-16T13:59:29.425Z,98634.77
2018-08-16T14:01:57.785Z,98642.27
2018-08-16T14:04:26.109Z,98636.41
2018-08-16T14:06:54.369Z,98634.01
2018-08-16T14:09:22.716Z,98631.28
2018-08-16T14:11:51.199Z,98626.86
2018-08-16T14:14:19.582Z,98630.93
2018-08-16T14:16:47.919Z,98633.77
2018-08-16T14:19:16.416Z,98624.48
2018-08-16T14:21:44.877Z,98620.12
2018-08-16T14:24:13.237Z,98626.91
2018-08-16T14:26:41.585Z,98617.79
2018-08-16T14:29:09.901Z,98619.96
2018-08-16T14:31:38.203Z,98620.60
2018-08-16T14:34:06.527Z,98621.53
2018-08-16T14:36:34.850Z,98609.31
2018-08-16T14:39:03.213Z,98610.95
2018-08-16T14:41:31.721Z,98606.47
2018-08-16T14:44:00.336Z,98608.67
2018-08-16T14:46:28.642Z,98609.69
2018-08-16T14:48:56.942Z,98616.45
2018-08-16T14:51:25.378Z,98609.92
2018-08-16T14:53:53.637Z,98603.48
2018-08-16T14:56:22.064Z,98607.43
2018-08-16T14:58:50.407Z,98596.41
2018-08-16T15:01:18.715Z,98588.72
2018-08-16T15:03:47.148Z,98581.42
2018-08-16T15:06:15.466Z,98591.95
2018-08-16T15:08:43.801Z,98589.33
2018-08-16T15:11:12.133Z,98579.78
2018-08-16T15:13:40.459Z,98574.92
2018-08-16T15:16:08.778Z,98572.20
2018-08-16T15:18:37.085Z,98583.87
2018-08-16T15:21:05.446Z,98580.31
2018-08-16T15:23:33.754Z,98576.14
2018-08-16T15:26:02.126Z,98581.20
2018-08-16T15:28:30.495Z,98572.41
2018-08-16T15:30:58.935Z,98578.63
2018-08-16T15:33:27.266Z,98580.31
2018-08-16T15:35:55.758Z,98581.10
2018-08-16T15:38:24.106Z,98573.44
2018-08-16T15:40:52.656Z,98572.20
2018-08-16T15:43:20.890Z,98564.26
2018-08-16T15:45:49.216Z,98564.79
2018-08-16T15:48:17.551Z,98564.43
2018-08-16T15:50:46.366Z,98555.95
2018-08-16T15:53:14.881Z,98571.75
2018-08-16T15:55:44.218Z,98565.45
2018-08-16T15:58:12.532Z,98564.76
2018-08-16T16:00:40.848Z,98560.64
2018-08-16T16:03:09.401Z,98560.74
2018-08-16T16:05:37.829Z,98554.64
2018-08-16T16:08:06.162Z,98558.64
2018-08-16T16:10:34.570Z,98557.70
2018-08-16T16:13:02.926Z,98559.10
2018-08-16T16:15:31.260Z,98559.75
2018-08-16T16:17:59.769Z,98555.41
2018-08-16T16:20:28.102Z,98554.80
2018-08-16T16:22:56.576Z,98551.67
2018-08-16T16:25:24.873Z,98545.55
2018-08-16T16:27:53.344Z,98543.88
2018-08-16T16:30:21.625Z,98544.84
2018-08-16T16:32:49.939Z,98544.28
2018-08-16T16:35:18.209Z,98540.99
2018-08-16T16:37:46.584Z,98541.52
2018-08-16T16:40:14.890Z,98540.87
2018-08-16T16:42:43.234Z,98534.23
2018-08-16T16:45:11.518Z,98534.47
2018-08-16T16:47:39.851Z,98531.30
2018-08-16T16:50:09.099Z,98528.14
2018-08-16T16:52:44.734Z,98519.66
2018-08-16T16:55:13.069Z,98521.38
2018-08-16T16:57:41.354Z,98520.06
2018-08-16T17:00:09.844Z,98518.30
2018-08-16T17:02:38.287Z,98518.60
2018-08-16T17:05:06.705Z,98523.74
2018-08-16T17:07:35.062Z,98522.60
2018-08-16T17:10:03.376Z,98523.66
2018-08-16T17:12:31.848Z,98520.66
2018-08-16T17:15:00.176Z,98522.26
2018-08-16T17:17:28.566Z,98524.61
2018-08-16T17:19:56.859Z,98528.00
2018-08-16T17:22:25.364Z,98521.63
2018-08-16T17:24:53.845Z,98522.74
2018-08-16T17:27:22.299Z,98523.78
2018-08-16T17:29:50.584Z,98520.19
2018-08-16T17:32:19.185Z,98528.63
2018-08-16T17:34:47.651Z,98526.78
2018-08-16T17:37:15.953Z,98532.73
2018-08-16T17:39:44.269Z,98531.70
2018-08-16T17:42:12.862Z,98530.27
2018-08-16T17:44:41.163Z,98536.38
2018-08-16T17:47:09.748Z,98533.70
2018-08-16T17:49:38.095Z,98536.13
2018-08-16T17:52:06.570Z,98544.49
2018-08-16T17:54:35.103Z,98541.41
2018-08-16T17:57:03.447Z,98543.63
2018-08-16T17:59:31.979Z,98540.14
2018-08-16T18:02:00.555Z,98541.91
2018-08-16T18:04:29.042Z,98540.33
2018-08-16T18:06:57.799Z,98541.19
2018-08-16T18:09:26.110Z,98540.84
2018-08-16T18:11:54.553Z,98542.51
2018-08-16T18:14:22.842Z,98538.56
2018-08-16T18:16:51.159Z,98539.53
2018-08-16T18:19:19.575Z,98541.88
2018-08-16T18:21:47.992Z,98547.09
2018-08-16T18:24:16.313Z,98542.59
2018-08-16T18:26:44.612Z,98547.33
2018-08-16T18:29:13.116Z,98546.70
2018-08-16T18:31:41.629Z,98548.92
2018-08-16T18:34:10.102Z,98550.08
2018-08-16T18:36:38.626Z,98548.63
2018-08-16T18:39:08.612Z,98552.41
2018-08-16T18:41:37.289Z,98553.38
2018-08-16T18:44:05.572Z,98553.25
2018-08-16T18:46:33.912Z,98558.75
2018-08-16T18:49:02.569Z,98555.87
2018-08-16T18:51:30.863Z,98561.64
2018-08-16T18:53:59.354Z,98569.03
2018-08-16T18:56:27.671Z,98569.73
2018-08-16T18:58:56.078Z,98566.30
2018-08-16T19:01:25.705Z,98572.14
2018-08-16T19:03:54.845Z,98571.94
2018-08-16T19:06:24.490Z,98573.14
2018-08-16T19:08:52.837Z,98575.55
2018-08-16T19:11:21.292Z,98583.05
2018-08-16T19:13:49.771Z,98583.19
2018-08-16T19:16:18.192Z,98585.59
2018-08-16T19:18:46.601Z,98586.05
2018-08-16T19:21:14.860Z,98583.91
2018-08-16T19:23:43.243Z,98587.42
2018-08-16T19:26:11.839Z,98587.31
2018-08-16T19:28:40.155Z,98588.73
2018-08-16T19:31:08.428Z,98577.73
2018-08-16T19:33:36.734Z,98588.95
2018-08-16T19:36:05.784Z,98583.59
2018-08-16T19:38:34.186Z,98584.71
2018-08-16T19:41:02.597Z,98587.29
2018-08-16T19:43:31.065Z,98578.91
2018-08-16T19:45:59.655Z,98580.75
2018-08-16T19:48:28.063Z,98581.86
2018-08-16T19:50:56.366Z,98577.72
2018-08-16T19:53:24.731Z,98579.83
2018-08-16T19:55:53.128Z,98590.13
2018-08-16T19:58:21.438Z,98585.16
2018-08-16T20:00:49.800Z,98584.66
2018-08-16T20:03:18.137Z,98586.11
2018-08-16T20:05:46.542Z,98589.97
2018-08-16T20:08:14.895Z,98587.38
2018-08-16T20:10:43.192Z,98589.78
2018-08-16T20:13:11.606Z,98580.30
2018-08-16T20:15:40.181Z,98584.37
2018-08-16T20:18:08.658Z,98589.06
2018-08-16T20:20:36.891Z,98586.06
2018-08-16T20:23:05.344Z,98589.62
2018-08-16T20:25:33.770Z,98593.58
2018-08-16T20:28:02.184Z,98591.69
2018-08-16T20:30:33.127Z,98584.92
2018-08-16T20:33:01.522Z,98594.80
2018-08-16T20:35:29.863Z,98588.34
2018-08-16T20:37:58.310Z,98590.59
2018-08-16T20:40:26.705Z,98598.45
2018-08-16T20:42:55.255Z,98586.04
2018-08-16T20:45:23.516Z,98587.61
2018-08-16T20:47:51.829Z,98588.69
2018-08-16T20:50:20.143Z,98585.59
2018-08-16T20:52:48.432Z,98592.69
2018-08-16T20:55:16.784Z,98591.39
2018-08-16T20:57:45.238Z,98601.14
2018-08-16T21:00:13.594Z,98598.34
2018-08-16T21:02:41.904Z,98602.07
2018-08-16T21:05:10.483Z,98600.47
2018-08-16T21:07:38.740Z,98606.09
2018-08-16T21:10:08.188Z,98605.16
2018-08-16T21:12:36.455Z,98604.28
2018-08-16T21:15:05.944Z,98611.06
2018-08-16T21:17:34.122Z,98610.15
2018-08-16T21:20:02.515Z,98613.25
2018-08-16T21:22:30.804Z,98603.46
2018-08-16T21:24:59.092Z,98609.02
2018-08-16T21:27:27.498Z,98600.48
2018-08-16T21:29:55.787Z,98604.95
2018-08-16T21:32:24.086Z,98607.32
2018-08-16T21:34:52.355Z,98610.45
2018-08-16T21:37:20.659Z,98613.97
2018-08-16T21:39:48.954Z,98613.36
2018-08-16T21:42:17.294Z,98621.40
2018-08-16T21:44:45.623Z,98616.30
2018-08-16T21:47:14.063Z,98612.94
2018-08-16T21:49:42.346Z,98611.48
2018-08-16T21:52:10.726Z,98617.27
2018-08-16T21:54:39.026Z,98614.03
2018-08-16T21:57:07.471Z,98618.11
2018-08-16T21:59:35.846Z,98620.14
2018-08-16T22:02:04.671Z,98617.03
2018-08-16T22:04:33.005Z,98617.91
2018-08-16T22:07:09.964Z,98618.58
2018-08-16T22:09:38.387Z,98613.49
2018-08-16T22:12:06.679Z,98619.54
2018-08-16T22:14:35.035Z,98616.96
2018-08-16T22:17:03.347Z,98622.13
2018-08-16T22:19:31.628Z,98621.00
2018-08-16T22:21:59.950Z,98626.53
2018-08-16T22:24:28.214Z,98615.38
2018-08-16T22:26:56.555Z,98618.62
2018-08-16T22:29:24.846Z,98613.24
2018-08-16T22:31:59.074Z,98612.75
2018-08-16T22:34:27.358Z,98614.85
2018-08-16T22:36:55.656Z,98616.59
2018-08-16T22:39:24.090Z,98615.03
2018-08-16T22:41:52.508Z,98626.38
2018-08-16T22:44:20.843Z,98624.25
2018-08-16T22:46:49.161Z,98625.19
2018-08-16T22:49:17.435Z,98617.82
2018-08-16T22:51:45.745Z,98618.23
2018-08-16T22:54:14.271Z,98620.06
2018-08-16T22:56:42.603Z,98618.77
2018-08-16T22:59:10.898Z,98620.07
2018-08-16T23:01:39.280Z,98620.27
2018-08-16T23:04:07.602Z,98609.16
2018-08-16T23:06:35.943Z,98611.31
2018-08-16T23:09:04.800Z,98604.31
2018-08-16T23:11:33.247Z,98602.26
2018-08-16T23:14:01.565Z,98604.72
2018-08-16T23:16:29.872Z,98607.13
2018-08-16T23:18:58.249Z,98599.67
2018-08-16T23:21:26.566Z,98597.89
2018-08-16T23:23:54.891Z,98599.45
2018-08-16T23:26:23.172Z,98588.80
2018-08-16T23:28:51.620Z,98587.67
2018-08-16T23:31:20.043Z,98592.73
2018-08-16T23:33:48.584Z,98597.31
2018-08-16T23:36:16.907Z,98585.17
2018-08-16T23:38:45.225Z,98589.28
2018-08-16T23:41:13.619Z,98591.79
2018-08-16T23:43:42.619Z,98594.23
2018-08-16T23:46:10.987Z,98594.84
2018-08-16T23:48:39.294Z,98597.28
2018-08-16T23:51:07.579Z,98591.36
2018-08-16T23:53:35.903Z,98590.34
2018-08-16T23:56:04.238Z,98601.02
2018-08-16T23:58:32.570Z,98594.20
